createdAt,value
2022-08-16T00:00:20.124Z,94177.31
2022-08-16T00:02:49.260Z,94180.47
2022-08-16T00:05:16.335Z,94178.91
2022-08-16T00:07:44.712Z,94173.84
2022-08-16T00:10:20.682Z,94164.50
2022-08-16T00:12:50.014Z,94168.06
2022-08-16T00:15:25.767Z,94165.72
2022-08-16T00:18:13.451Z,94159.44
2022-08-16T00:20:42.803Z,94158.63
2022-08-16T00:23:10.513Z,94174.66
2022-08-16T00:26:13.594Z,94175.06
2022-08-16T00:28:24.339Z,94174.72
2022-08-16T00:30:59.201Z,94173.97
2022-08-16T00:33:28.897Z,94179.44
2022-08-16T00:35:57.650Z,94183.75
2022-08-16T00:38:41.212Z,94181.00
2022-08-16T00:41:11.314Z,94180.69
2022-08-16T00:43:42.699Z,94186.09
2022-08-16T00:46:32.916Z,94188.03
2022-08-16T00:49:01.469Z,94191.94
2022-08-16T00:51:29.708Z,94200.19
2022-08-16T00:53:56.821Z,94202.16
2022-08-16T00:56:57.474Z,94207.19
2022-08-16T00:59:15.228Z,94202.03
2022-08-16T01:01:43.147Z,94208.66
2022-08-16T01:04:29.259Z,94209.41
2022-08-16T01:07:02.375Z,94215.50
2022-08-16T01:09:33.614Z,94212.66
2022-08-16T01:12:02.250Z,94215.41
2022-08-16T01:14:35.592Z,94216.47
2022-08-16T01:17:03.409Z,94229.66
2022-08-16T01:19:41.853Z,94228.44
2022-08-16T01:22:47.551Z,94227.66
2022-08-16T01:25:19.028Z,94228.03
2022-08-16T01:27:51.578Z,94229.97
2022-08-16T01:30:49.612Z,94227.22
2022-08-16T01:33:19.190Z,94231.94
2022-08-16T01:35:54.275Z,94232.78
2022-08-16T01:38:32.337Z,94228.50
2022-08-16T01:41:05.372Z,94229.34
2022-08-16T01:43:34.626Z,94238.31
2022-08-16T01:46:37.341Z,94242.28
2022-08-16T01:49:05.315Z,94243.13
2022-08-16T01:51:32.441Z,94239.22
2022-08-16T01:54:00.483Z,94238.47
2022-08-16T01:56:32.050Z,94244.34
2022-08-16T01:59:01.473Z,94250.50
2022-08-16T02:01:29.832Z,94248.47
2022-08-16T02:04:11.161Z,94261.66
2022-08-16T02:06:46.033Z,94265.78
2022-08-16T02:09:17.903Z,94283.88
2022-08-16T02:11:53.563Z,94291.88
2022-08-16T02:14:26.466Z,94293.44
2022-08-16T02:16:56.261Z,94300.94
2022-08-16T02:19:24.235Z,94302.59
2022-08-16T02:22:34.235Z,94305.72
2022-08-16T02:25:00.252Z,94316.78
2022-08-16T02:27:27.402Z,94317.50
2022-08-16T02:30:05.657Z,94317.69
2022-08-16T02:32:49.903Z,94301.97
2022-08-16T02:35:18.960Z,94295.56
2022-08-16T02:37:52.501Z,94297.72
2022-08-16T02:40:23.512Z,94295.69
2022-08-16T02:42:53.202Z,94293.75
2022-08-16T02:45:24.693Z,94303.88
2022-08-16T02:48:00.738Z,94304.72
2022-08-16T02:50:55.226Z,94292.97
2022-08-16T02:53:26.209Z,94300.78
2022-08-16T02:55:53.553Z,94301.63
2022-08-16T02:58:24.869Z,94298.13
2022-08-16T03:00:56.067Z,94296.97
2022-08-16T03:03:26.456Z,94292.44
2022-08-16T03:05:54.051Z,94282.78
2022-08-16T03:08:50.267Z,94286.44
2022-08-16T03:11:16.745Z,94278.47
2022-08-16T03:13:51.265Z,94269.13
2022-08-16T03:16:37.845Z,94263.16
2022-08-16T03:19:08.430Z,94259.22
2022-08-16T03:21:37.815Z,94262.31
2022-08-16T03:24:28.282Z,94260.75
2022-08-16T03:26:57.734Z,94259.59
2022-08-16T03:29:30.103Z,94266.19
2022-08-16T03:31:59.405Z,94259.16
2022-08-16T03:34:27.651Z,94259.88
2022-08-16T03:36:55.190Z,94263.00
2022-08-16T03:39:22.492Z,94272.16
2022-08-16T03:41:51.384Z,94271.66
2022-08-16T03:44:45.003Z,94263.75
2022-08-16T03:47:18.882Z,94264.53
2022-08-16T03:49:51.851Z,94266.78
2022-08-16T03:52:23.562Z,94271.16
2022-08-16T03:54:58.124Z,94270.50
2022-08-16T03:57:32.078Z,94273.22
2022-08-16T04:00:20.589Z,94265.28
2022-08-16T04:03:07.799Z,94272.13
2022-08-16T04:05:44.367Z,94268.38
2022-08-16T04:08:22.440Z,94259.03
2022-08-16T04:10:54.981Z,94259.09
2022-08-16T04:14:01.060Z,94260.78
2022-08-16T04:16:21.883Z,94253.88
2022-08-16T04:19:01.215Z,94255.38
2022-08-16T04:21:30.781Z,94254.22
2022-08-16T04:23:59.945Z,94251.59
2022-08-16T04:26:31.137Z,94249.28
2022-08-16T04:29:15.183Z,94253.31
2022-08-16T04:31:55.671Z,94261.25
2022-08-16T04:34:28.107Z,94256.56
2022-08-16T04:36:56.645Z,94256.56
2022-08-16T04:39:24.527Z,94267.97
2022-08-16T04:42:11.250Z,94276.28
2022-08-16T04:44:54.120Z,94268.03
2022-08-16T04:47:33.455Z,94269.34
2022-08-16T04:50:30.414Z,94262.56
2022-08-16T04:53:00.770Z,94261.13
2022-08-16T04:55:38.303Z,94263.81
2022-08-16T04:58:45.739Z,94274.59
2022-08-16T05:00:57.674Z,94278.09
2022-08-16T05:03:26.163Z,94274.59
2022-08-16T05:05:59.195Z,94277.44
2022-08-16T05:08:34.286Z,94274.53
2022-08-16T05:11:14.366Z,94263.81
2022-08-16T05:13:43.021Z,94272.59
2022-08-16T05:16:22.879Z,94270.75
2022-08-16T05:18:56.906Z,94279.81
2022-08-16T05:21:27.557Z,94279.22
2022-08-16T05:24:03.265Z,94285.50
2022-08-16T05:26:33.505Z,94286.28
2022-08-16T05:29:03.642Z,94294.19
2022-08-16T05:31:31.819Z,94290.63
2022-08-16T05:34:03.157Z,94294.22
2022-08-16T05:36:36.751Z,94287.00
2022-08-16T05:39:09.584Z,94285.94
2022-08-16T05:41:45.304Z,94275.84
2022-08-16T05:44:22.920Z,94279.00
2022-08-16T05:46:54.956Z,94281.50
2022-08-16T05:49:25.071Z,94276.38
2022-08-16T05:51:56.694Z,94280.69
2022-08-16T05:54:26.015Z,94275.53
2022-08-16T05:56:59.198Z,94275.63
2022-08-16T05:59:27.540Z,94276.50
2022-08-16T06:01:56.336Z,94287.84
2022-08-16T06:04:36.443Z,94284.44
2022-08-16T06:07:24.406Z,94276.25
2022-08-16T06:09:59.699Z,94282.63
2022-08-16T06:12:28.810Z,94280.69
2022-08-16T06:15:04.564Z,94287.81
2022-08-16T06:17:42.900Z,94285.16
2022-08-16T06:20:24.194Z,94282.13
2022-08-16T06:22:58.872Z,94279.13
2022-08-16T06:25:41.058Z,94279.94
2022-08-16T06:28:16.603Z,94271.44
2022-08-16T06:30:45.141Z,94265.25
2022-08-16T06:33:19.844Z,94263.75
2022-08-16T06:35:54.737Z,94273.16
2022-08-16T06:38:33.456Z,94270.44
2022-08-16T06:41:13.589Z,94274.38
2022-08-16T06:43:42.476Z,94269.72
2022-08-16T06:46:23.550Z,94270.19
2022-08-16T06:49:02.108Z,94274.91
2022-08-16T06:51:45.928Z,94264.78
2022-08-16T06:54:18.581Z,94267.59
2022-08-16T06:56:45.684Z,94268.41
2022-08-16T06:59:19.057Z,94260.97
2022-08-16T07:01:53.558Z,94251.22
2022-08-16T07:04:31.824Z,94257.13
2022-08-16T07:06:59.962Z,94249.34
2022-08-16T07:09:29.755Z,94247.78
2022-08-16T07:12:03.204Z,94250.94
2022-08-16T07:14:35.036Z,94246.22
2022-08-16T07:17:08.312Z,94240.34
2022-08-16T07:20:02.850Z,94242.69
2022-08-16T07:22:39.737Z,94240.75
2022-08-16T07:25:23.322Z,94225.84
2022-08-16T07:27:51.844Z,94229.00
2022-08-16T07:30:38.168Z,94230.53
2022-08-16T07:33:15.956Z,94232.91
2022-08-16T07:35:49.279Z,94230.50
2022-08-16T07:38:19.928Z,94236.78
2022-08-16T07:41:00.573Z,94238.28
2022-08-16T07:43:30.165Z,94236.28
2022-08-16T07:46:01.371Z,94241.38
2022-08-16T07:48:30.708Z,94237.34
2022-08-16T07:50:59.181Z,94244.75
2022-08-16T07:53:30.043Z,94228.63
2022-08-16T07:56:00.520Z,94236.03
2022-08-16T07:58:36.279Z,94245.41
2022-08-16T08:01:16.517Z,94239.50
2022-08-16T08:03:56.960Z,94252.00
2022-08-16T08:06:32.903Z,94246.41
2022-08-16T08:09:09.341Z,94251.00
2022-08-16T08:11:38.760Z,94245.09
2022-08-16T08:14:08.232Z,94249.72
2022-08-16T08:16:55.222Z,94241.41
2022-08-16T08:19:29.944Z,94238.97
2022-08-16T08:22:00.039Z,94240.09
2022-08-16T08:24:59.089Z,94239.56
2022-08-16T08:27:27.829Z,94247.31
2022-08-16T08:30:48.982Z,94243.19
2022-08-16T08:32:58.123Z,94255.34
2022-08-16T08:35:29.589Z,94252.66
2022-08-16T08:37:58.725Z,94247.13
2022-08-16T08:40:29.759Z,94254.28
2022-08-16T08:43:00.756Z,94259.03
2022-08-16T08:45:48.522Z,94255.00
2022-08-16T08:48:34.026Z,94250.88
2022-08-16T08:51:12.282Z,94254.69
2022-08-16T08:53:57.946Z,94257.03
2022-08-16T08:56:35.123Z,94259.50
2022-08-16T08:59:21.030Z,94254.91
2022-08-16T09:01:56.624Z,94254.78
2022-08-16T09:04:26.913Z,94249.88
2022-08-16T09:06:55.291Z,94249.03
2022-08-16T09:09:23.580Z,94257.53
2022-08-16T09:12:06.391Z,94253.09
2022-08-16T09:14:54.101Z,94263.81
2022-08-16T09:17:48.855Z,94262.53
2022-08-16T09:20:16.611Z,94262.16
2022-08-16T09:22:44.269Z,94262.88
2022-08-16T09:25:26.292Z,94267.38
2022-08-16T09:28:02.480Z,94258.44
2022-08-16T09:30:43.903Z,94256.72
2022-08-16T09:33:12.076Z,94265.41
2022-08-16T09:35:39.387Z,94262.78
2022-08-16T09:38:10.112Z,94262.59
2022-08-16T09:40:42.753Z,94256.63
2022-08-16T09:43:21.071Z,94250.72
2022-08-16T09:45:58.490Z,94250.41
2022-08-16T09:48:36.816Z,94250.50
2022-08-16T09:51:12.473Z,94260.00
2022-08-16T09:53:39.652Z,94248.75
2022-08-16T09:56:14.971Z,94264.34
2022-08-16T09:59:05.401Z,94253.94
2022-08-16T10:01:33.418Z,94251.16
2022-08-16T10:04:02.456Z,94248.44
2022-08-16T10:06:33.234Z,94259.81
2022-08-16T10:09:08.221Z,94251.22
2022-08-16T10:12:11.537Z,94249.63
2022-08-16T10:14:46.461Z,94253.44
2022-08-16T10:17:13.606Z,94250.19
2022-08-16T10:19:43.273Z,94246.03
2022-08-16T10:22:12.795Z,94235.16
2022-08-16T10:24:40.709Z,94242.88
2022-08-16T10:27:27.484Z,94243.78
2022-08-16T10:30:00.709Z,94249.94
2022-08-16T10:32:30.577Z,94273.53
2022-08-16T10:34:59.615Z,94268.50
2022-08-16T10:37:32.189Z,94270.00
2022-08-16T10:40:28.332Z,94256.47
2022-08-16T10:42:54.229Z,94252.28
2022-08-16T10:45:21.284Z,94254.31
2022-08-16T10:48:00.725Z,94249.56
2022-08-16T10:50:31.219Z,94244.59
2022-08-16T10:52:59.178Z,94242.22
2022-08-16T10:55:45.101Z,94239.59
2022-08-16T10:58:13.697Z,94235.56
2022-08-16T11:00:45.970Z,94231.03
2022-08-16T11:06:03.427Z,94225.72
2022-08-16T11:08:36.242Z,94221.34
2022-08-16T11:11:12.714Z,94240.28
2022-08-16T11:14:06.116Z,94239.53
2022-08-16T11:19:20.516Z,94241.69
2022-08-16T11:24:44.668Z,94245.88
2022-08-16T11:27:23.015Z,94240.66
2022-08-16T11:29:53.049Z,94251.53
2022-08-16T11:32:29.743Z,94257.81
2022-08-16T11:35:11.199Z,94253.22
2022-08-16T11:38:46.395Z,94243.63
2022-08-16T11:40:44.518Z,94218.50
2022-08-16T11:43:11.587Z,94213.97
2022-08-16T11:45:38.781Z,94216.28
2022-08-16T11:48:10.027Z,94217.53
2022-08-16T11:50:36.945Z,94215.22
2022-08-16T11:53:05.499Z,94213.34
2022-08-16T11:55:38.089Z,94205.78
2022-08-16T11:58:07.435Z,94204.81
2022-08-16T12:00:51.286Z,94208.38
2022-08-16T12:03:31.493Z,94202.25
2022-08-16T12:06:04.163Z,94197.78
2022-08-16T12:08:32.202Z,94193.50
2022-08-16T12:11:02.593Z,94203.03
2022-08-16T12:13:29.861Z,94203.53
2022-08-16T12:15:56.816Z,94201.47
2022-08-16T12:18:25.041Z,94203.25
2022-08-16T12:20:52.155Z,94199.59
2022-08-16T12:23:22.534Z,94198.91
2022-08-16T12:25:51.722Z,94184.09
2022-08-16T12:28:36.753Z,94180.72
2022-08-16T12:31:07.092Z,94180.22
2022-08-16T12:33:44.528Z,94174.09
2022-08-16T12:36:13.068Z,94179.31
2022-08-16T12:38:48.338Z,94171.31
2022-08-16T12:41:24.535Z,94171.44
2022-08-16T12:43:52.871Z,94170.84
2022-08-16T12:46:24.327Z,94168.09
2022-08-16T12:49:00.191Z,94169.34
2022-08-16T12:51:59.092Z,94169.75
2022-08-16T12:54:23.911Z,94168.81
2022-08-16T12:56:51.099Z,94167.69
2022-08-16T12:59:20.444Z,94166.97
2022-08-16T13:01:48.267Z,94169.56
2022-08-16T13:04:20.578Z,94160.81
2022-08-16T13:06:52.245Z,94152.81
2022-08-16T13:09:21.063Z,94136.25
2022-08-16T13:12:04.325Z,94144.16
2022-08-16T13:14:38.185Z,94151.94
2022-08-16T13:17:07.671Z,94153.03
2022-08-16T13:20:05.547Z,94148.34
2022-08-16T13:22:22.498Z,94156.28
2022-08-16T13:24:52.051Z,94148.72
2022-08-16T13:27:19.021Z,94151.81
2022-08-16T13:29:57.412Z,94140.94
2022-08-16T13:32:39.650Z,94139.94
2022-08-16T13:35:11.766Z,94135.13
2022-08-16T13:37:39.809Z,94135.13
2022-08-16T13:40:09.246Z,94134.97
2022-08-16T13:42:47.517Z,94132.03
2022-08-16T13:45:15.942Z,94137.09
2022-08-16T13:47:42.830Z,94130.94
2022-08-16T13:50:10.947Z,94136.34
2022-08-16T13:52:50.700Z,94139.28
2022-08-16T13:55:18.345Z,94140.91
2022-08-16T13:57:53.267Z,94144.34
2022-08-16T14:00:32.511Z,94141.84
2022-08-16T14:02:59.619Z,94137.19
2022-08-16T14:05:27.231Z,94145.38
2022-08-16T14:07:54.086Z,94144.06
2022-08-16T14:10:21.210Z,94133.34
2022-08-16T14:12:48.290Z,94141.38
2022-08-16T14:15:18.734Z,94133.53
2022-08-16T14:18:15.382Z,94135.34
2022-08-16T14:20:32.531Z,94135.84
2022-08-16T14:22:59.789Z,94140.19
2022-08-16T14:25:27.382Z,94142.97
2022-08-16T14:27:56.294Z,94142.78
2022-08-16T14:30:23.225Z,94147.91
2022-08-16T14:32:51.020Z,94145.72
2022-08-16T14:35:21.157Z,94140.22
2022-08-16T14:37:52.461Z,94151.84
2022-08-16T14:40:23.881Z,94163.81
2022-08-16T14:42:56.183Z,94155.59
2022-08-16T14:45:25.316Z,94153.47
2022-08-16T14:47:54.295Z,94155.81
2022-08-16T14:50:22.872Z,94154.22
2022-08-16T14:52:56.683Z,94160.59
2022-08-16T14:55:32.039Z,94151.09
2022-08-16T14:57:59.306Z,94147.53
2022-08-16T15:00:33.109Z,94149.09
2022-08-16T15:03:05.377Z,94155.19
2022-08-16T15:05:33.131Z,94154.66
2022-08-16T15:08:00.143Z,94160.78
2022-08-16T15:10:29.486Z,94160.13
2022-08-16T15:13:01.149Z,94156.28
2022-08-16T15:15:29.579Z,94166.44
2022-08-16T15:17:57.531Z,94161.34
2022-08-16T15:20:29.644Z,94160.03
2022-08-16T15:22:57.836Z,94157.16
2022-08-16T15:25:35.391Z,94157.44
2022-08-16T15:28:05.742Z,94163.81
2022-08-16T15:30:57.950Z,94154.25
2022-08-16T15:33:23.354Z,94162.25
2022-08-16T15:35:55.299Z,94160.75
2022-08-16T15:38:55.240Z,94163.00
2022-08-16T15:41:13.367Z,94161.06
2022-08-16T15:43:40.567Z,94162.94
2022-08-16T15:46:55.897Z,94161.50
2022-08-16T15:49:10.433Z,94163.63
2022-08-16T15:51:39.410Z,94168.84
2022-08-16T15:54:21.007Z,94161.72
2022-08-16T15:56:56.176Z,94173.34
2022-08-16T15:59:26.960Z,94166.91
2022-08-16T16:01:56.719Z,94171.09
2022-08-16T16:04:26.199Z,94179.31
2022-08-16T16:06:55.135Z,94176.38
2022-08-16T16:09:34.698Z,94175.69
2022-08-16T16:12:16.286Z,94178.34
2022-08-16T16:14:52.182Z,94176.94
2022-08-16T16:17:18.978Z,94187.50
2022-08-16T16:19:45.891Z,94181.81
2022-08-16T16:22:20.679Z,94179.97
2022-08-16T16:24:48.849Z,94182.63
2022-08-16T16:27:16.788Z,94191.44
2022-08-16T16:29:46.323Z,94182.84
2022-08-16T16:32:34.378Z,94174.28
2022-08-16T16:35:02.472Z,94188.06
2022-08-16T16:37:31.250Z,94181.34
2022-08-16T16:39:58.973Z,94183.72
2022-08-16T16:42:30.020Z,94178.78
2022-08-16T16:45:01.720Z,94180.84
2022-08-16T16:47:29.696Z,94190.13
2022-08-16T16:49:56.530Z,94193.38
2022-08-16T16:52:44.180Z,94182.84
2022-08-16T16:55:12.955Z,94190.03
2022-08-16T16:58:00.371Z,94194.69
2022-08-16T17:00:32.684Z,94197.09
2022-08-16T17:03:05.564Z,94189.88
2022-08-16T17:05:32.713Z,94189.25
2022-08-16T17:08:00.602Z,94195.69
2022-08-16T17:10:46.501Z,94196.22
2022-08-16T17:13:14.991Z,94195.13
2022-08-16T17:15:42.309Z,94192.38
2022-08-16T17:19:17.734Z,94197.47
2022-08-16T17:20:56.985Z,94200.22
2022-08-16T17:23:59.061Z,94201.81
2022-08-16T17:26:11.497Z,94202.47
2022-08-16T17:28:57.716Z,94210.81
2022-08-16T17:34:30.826Z,94204.75
2022-08-16T17:36:59.437Z,94208.66
2022-08-16T17:39:27.056Z,94208.03
2022-08-16T17:39:29.552Z,94207.31
2022-08-16T17:41:57.854Z,94215.44
2022-08-16T17:44:24.776Z,94219.13
2022-08-16T17:46:53.024Z,94224.31
2022-08-16T17:49:20.737Z,94224.41
2022-08-16T17:51:47.784Z,94224.56
2022-08-16T17:54:20.407Z,94228.69
2022-08-16T17:56:58.157Z,94231.25
2022-08-16T17:59:27.525Z,94232.16
2022-08-16T18:01:54.565Z,94227.97
2022-08-16T18:04:49.899Z,94228.44
2022-08-16T18:07:08.671Z,94235.56
2022-08-16T18:09:41.131Z,94243.09
2022-08-16T18:12:44.326Z,94244.03
2022-08-16T18:15:00.403Z,94246.91
2022-08-16T18:17:27.381Z,94245.81
2022-08-16T18:19:54.367Z,94259.03
2022-08-16T18:22:26.951Z,94260.72
2022-08-16T18:24:56.859Z,94268.59
2022-08-16T18:27:25.865Z,94266.25
2022-08-16T18:29:54.170Z,94264.75
2022-08-16T18:32:23.125Z,94268.00
2022-08-16T18:34:52.675Z,94275.47
2022-08-16T18:37:21.198Z,94275.94
2022-08-16T18:39:48.211Z,94281.88
2022-08-16T18:42:15.455Z,94283.06
2022-08-16T18:44:45.426Z,94287.78
2022-08-16T18:47:12.371Z,94281.13
2022-08-16T18:49:39.273Z,94286.25
2022-08-16T18:52:06.175Z,94292.94
2022-08-16T18:54:33.939Z,94293.34
2022-08-16T18:57:20.794Z,94291.78
2022-08-16T18:59:47.811Z,94291.75
2022-08-16T19:02:56.159Z,94300.41
2022-08-16T19:05:11.632Z,94307.84
2022-08-16T19:07:38.592Z,94313.34
2022-08-16T19:10:06.419Z,94312.94
2022-08-16T19:12:47.067Z,94324.72
2022-08-16T19:15:16.184Z,94329.03
2022-08-16T19:17:43.784Z,94331.38
2022-08-16T19:20:11.479Z,94338.06
2022-08-16T19:23:02.059Z,94332.56
2022-08-16T19:25:46.631Z,94332.94
2022-08-16T19:28:49.333Z,94339.59
2022-08-16T19:31:01.927Z,94343.50
2022-08-16T19:33:28.859Z,94339.59
2022-08-16T19:35:55.741Z,94340.44
2022-08-16T19:38:22.535Z,94343.53
2022-08-16T19:40:49.345Z,94349.03
2022-08-16T19:43:16.218Z,94341.22
2022-08-16T19:45:46.160Z,94347.50
2022-08-16T19:48:13.506Z,94345.16
2022-08-16T19:50:40.802Z,94344.38
2022-08-16T19:53:12.399Z,94350.66
2022-08-16T19:55:46.126Z,94345.56
2022-08-16T19:58:15.523Z,94335.75
2022-08-16T20:00:43.655Z,94345.94
2022-08-16T20:03:11.881Z,94340.06
2022-08-16T20:05:40.628Z,94340.84
2022-08-16T20:08:08.242Z,94338.09
2022-08-16T20:10:35.097Z,94350.63
2022-08-16T20:13:02.853Z,94338.84
2022-08-16T20:15:32.011Z,94349.84
2022-08-16T20:18:00.960Z,94349.09
2022-08-16T20:20:28.944Z,94354.56
2022-08-16T20:22:57.779Z,94349.06
2022-08-16T20:25:33.618Z,94358.50
2022-08-16T20:28:08.410Z,94352.22
2022-08-16T20:30:35.455Z,94357.69
2022-08-16T20:33:02.463Z,94358.44
2022-08-16T20:35:29.320Z,94346.69
2022-08-16T20:37:56.228Z,94353.78
2022-08-16T20:40:34.703Z,94349.81
2022-08-16T20:43:13.809Z,94360.03
2022-08-16T20:45:41.622Z,94362.75
2022-08-16T20:48:08.774Z,94355.28
2022-08-16T20:50:35.971Z,94364.31
2022-08-16T20:53:03.558Z,94371.75
2022-08-16T20:55:31.145Z,94372.53
2022-08-16T20:57:58.133Z,94367.84
2022-08-16T21:00:25.092Z,94370.19
2022-08-16T21:02:53.704Z,94376.84
2022-08-16T21:05:23.990Z,94374.88
2022-08-16T21:07:52.928Z,94376.41
2022-08-16T21:10:22.098Z,94383.06
2022-08-16T21:12:53.157Z,94375.22
2022-08-16T21:15:22.691Z,94383.41
2022-08-16T21:17:50.350Z,94383.41
2022-08-16T21:20:19.741Z,94383.06
2022-08-16T21:22:58.950Z,94382.63
2022-08-16T21:25:28.033Z,94386.16
2022-08-16T21:28:41.653Z,94388.50
2022-08-16T21:30:45.389Z,94388.47
2022-08-16T21:33:16.782Z,94381.81
2022-08-16T21:35:45.697Z,94388.47
2022-08-16T21:38:30.357Z,94388.00
2022-08-16T21:40:58.608Z,94394.59
2022-08-16T21:43:28.280Z,94391.81
2022-08-16T21:45:56.274Z,94385.50
2022-08-16T21:48:35.030Z,94392.94
2022-08-16T21:51:07.781Z,94387.78
2022-08-16T21:53:37.824Z,94381.50
2022-08-16T21:56:06.044Z,94381.88
2022-08-16T21:58:35.005Z,94385.38
2022-08-16T22:01:03.582Z,94379.81
2022-08-16T22:03:33.551Z,94382.56
2022-08-16T22:06:13.516Z,94381.72
2022-08-16T22:08:49.066Z,94381.63
2022-08-16T22:11:18.173Z,94371.84
2022-08-16T22:13:51.330Z,94374.91
2022-08-16T22:16:33.514Z,94374.09
2022-08-16T22:19:01.744Z,94374.09
2022-08-16T22:21:29.396Z,94374.81
2022-08-16T22:23:58.627Z,94373.97
2022-08-16T22:26:31.297Z,94372.41
2022-08-16T22:29:04.726Z,94358.34
2022-08-16T22:31:31.762Z,94369.31
2022-08-16T22:33:58.630Z,94368.50
2022-08-16T22:36:28.298Z,94367.28
2022-08-16T22:38:59.912Z,94371.50
2022-08-16T22:41:31.969Z,94369.91
2022-08-16T22:43:59.355Z,94370.56
2022-08-16T22:46:26.390Z,94371.31
2022-08-16T22:48:53.433Z,94360.97
2022-08-16T22:51:20.920Z,94359.31
2022-08-16T22:53:48.244Z,94364.75
2022-08-16T22:56:15.820Z,94366.94
2022-08-16T22:58:42.779Z,94370.44
2022-08-16T23:01:10.212Z,94376.25
2022-08-16T23:03:37.649Z,94366.28
2022-08-16T23:06:05.101Z,94369.66
2022-08-16T23:08:38.676Z,94372.38
2022-08-16T23:11:12.313Z,94364.09
2022-08-16T23:13:49.750Z,94365.34
2022-08-16T23:16:33.120Z,94357.91
2022-08-16T23:19:02.121Z,94353.94
2022-08-16T23:21:30.353Z,94360.94
2022-08-16T23:23:57.224Z,94357.75
2022-08-16T23:26:44.395Z,94357.00
2022-08-16T23:29:21.966Z,94357.34
2022-08-16T23:31:53.602Z,94351.13
2022-08-16T23:34:21.095Z,94356.97
2022-08-16T23:36:48.108Z,94350.00
2022-08-16T23:39:14.982Z,94350.66
2022-08-16T23:41:41.822Z,94351.28
2022-08-16T23:44:56.368Z,94345.00
2022-08-16T23:46:56.004Z,94344.19
2022-08-16T23:49:57.073Z,94343.38
2022-08-16T23:52:10.567Z,94344.09
2022-08-16T23:54:37.506Z,94343.38
2022-08-16T23:57:04.429Z,94338.38
2022-08-16T23:59:33.316Z,94343.81
